Alessandro F — IBVQ — position and weather

sailwx.info

Track history (hours):
 
Tides and Currents Weather Stations Pressure Air Temp Water Temp Dewpoint Dewpoint Depression Visibility Wind Speed Wind Dir Waves Ship Positions

Alessandro F

Last reported at 2015-Apr-15 12:34 UTC. Time now 2015-Apr-21 02:50 UTC.
Position N 40°15' E 018°36'.

Length 100 m; draft 6.2 m.

Type: Ship (hazmat cat B). MMSI: 247046400.

Date/timePositionNaut miles runAvg speedWind from/ knotsBaromVisibWave heightAir tempDewpointWater temp
2015-Apr-15 12:34N 40°15' E 018°36'1311.6
2015-Apr-15 11:27N 40°02' E 018°36'1112.8
2015-Apr-15 10:33N 39°52' E 018°32'1312.6
2015-Apr-15 09:33N 39°40' E 018°24'1312.9
2015-Apr-15 08:33N 39°32' E 018°11'244 8.7
2015-Apr-14 04:30N 40°33' E 013°03'18213.6
2015-Apr-13 15:08N 42°40' E 010°08'813.6
2015-Apr-13 14:33N 42°45' E 009°59'1312.8
2015-Apr-13 13:33N 42°54' E 009°47'1313.2
2015-Apr-13 12:33N 43°04' E 009°36'1212.0
2015-Apr-13 11:33N 43°08' E 009°20'1714.4
2015-Apr-13 10:24N 43°05' E 008°58'1214.3
2015-Apr-13 09:34N 43°03' E 008°42'6913.7
2015-Apr-13 04:33N 42°51' E 007°10'1313.5
2015-Apr-13 03:33N 42°49' E 006°51'1413.6
2015-Apr-13 02:33N 42°47' E 006°33'1513.3
2015-Apr-13 01:26N 42°46' E 006°13'5112.8
2015-Apr-12 21:28N 43°02' E 005°06'1613.6
2015-Apr-12 20:15N 43°17' E 004°59'810.9
2015-Apr-12 19:33N 43°24' E 004°54'1 1.1
2015-Apr-12 18:21N 43°25' E 004°53'0 0.0
2015-Apr-12 17:33N 43°25' E 004°53'0 0.0
2015-Apr-12 16:33N 43°25' E 004°53'0 0.0
2015-Apr-12 15:34N 43°25' E 004°53'0 0.0
2015-Apr-12 14:33N 43°25' E 004°53'0 0.0
2015-Apr-12 13:33N 43°25' E 004°53'0 0.0
2015-Apr-12 12:34N 43°25' E 004°53'0 0.0
2015-Apr-12 11:33N 43°25' E 004°53'0 0.0
2015-Apr-12 10:33N 43°25' E 004°53'0 0.0
2015-Apr-12 09:33N 43°25' E 004°53'0 0.0
2015-Apr-12 08:33N 43°25' E 004°53'0 0.0
2015-Apr-12 07:33N 43°25' E 004°53'0 0.0
2015-Apr-12 06:33N 43°25' E 004°53'0 0.0
2015-Apr-12 05:33N 43°25' E 004°53'0 0.0
2015-Apr-12 04:33N 43°25' E 004°53'0 0.0
2015-Apr-12 03:33N 43°25' E 004°53'0 0.0
2015-Apr-12 02:33N 43°25' E 004°53'0 0.0
2015-Apr-12 01:33N 43°25' E 004°53'0 0.0
2015-Apr-12 00:33N 43°25' E 004°53'0 0.0
2015-Apr-11 23:32N 43°25' E 004°53'0 0.0
2015-Apr-11 22:33N 43°25' E 004°53'0 0.0
2015-Apr-11 21:33N 43°25' E 004°53'0 0.0
2015-Apr-11 20:34N 43°25' E 004°53'0 0.0
2015-Apr-11 19:33N 43°25' E 004°53'0 0.0
2015-Apr-11 18:33N 43°25' E 004°53'2 2.1
2015-Apr-11 17:33N 43°24' E 004°55'9 8.9
2015-Apr-11 16:32N 43°16' E 005°01'1312.7
2015-Apr-11 15:31N 43°03' E 005°02'1513.8
2015-Apr-11 14:26N 42°48' E 004°59'4549.9
2015-Apr-11 13:31N 43°33' E 004°58'7168.2
2015-Apr-11 12:29N 42°22' E 004°57'1313.1
2015-Apr-11 11:31N 42°09' E 004°56'1313.0
2015-Apr-11 10:33N 41°57' E 004°54'1313.2
2015-Apr-11 09:33N 41°44' E 004°53'1413.3
2015-Apr-11 08:30N 41°30' E 004°52'1613.4
2015-Apr-11 07:18N 41°14' E 004°50'2513.3
2015-Apr-11 05:27N 40°49' E 004°47'1213.2
2015-Apr-11 04:31N 40°37' E 004°46'1313.1
2015-Apr-11 03:30N 40°23' E 004°45'5312.8
2015-Apr-10 23:21N 39°31' E 004°32'4013.1
2015-Apr-10 20:18N 38°54' E 004°13'1013.1
2015-Apr-10 19:32N 38°45' E 004°08'1513.0
2015-Apr-10 18:23N 38°31' E 004°01'5913.8
2015-Apr-10 14:04N 37°36' E 003°32'813.5
2015-Apr-10 13:28N 37°28' E 003°28'4113.6
2015-Apr-10 10:27N 36°51' E 003°08'5 0.2
2015-Apr-09 10:20N 36°46' E 003°08'0 0.0
2015-Apr-09 01:32N 36°46' E 003°08'0 0.0
2015-Apr-08 21:26N 36°46' E 003°08'0 0.0
2015-Apr-08 19:08N 36°46' E 003°08'0 0.0
2015-Apr-08 18:32N 36°46' E 003°08'  
2015-Apr-06 12:16N 38°40' E 002°21'912.8
2015-Apr-06 11:32N 38°49' E 002°18'1313.1
2015-Apr-06 10:33N 39°01' E 002°13'1313.0
2015-Apr-06 09:33N 39°14' E 002°08'1313.2
2015-Apr-06 08:34N 39°26' E 002°03'1513.1
2015-Apr-06 07:26N 39°41' E 002°01'1213.4
2015-Apr-06 06:33N 39°53' E 002°02'1414.2
2015-Apr-06 05:33N 40°07' E 002°04'1414.0
2015-Apr-06 04:33N 40°21' E 002°05'1413.9
2015-Apr-06 03:33N 40°35' E 002°06'1414.1
2015-Apr-06 02:33N 40°49' E 002°08'  
Track history (hours):
 
Tides and Currents Weather Stations Pressure Air Temp Water Temp Dewpoint Dewpoint Depression Visibility Wind Speed Wind Dir Waves Ship Positions

Alessandro F

Last reported at 2015-Apr-15 12:34 UTC. Time now 2015-Apr-21 02:50 UTC.
Position N 40°15' E 018°36'.

Length 100 m; draft 6.2 m.

Type: Ship (hazmat cat B). MMSI: 247046400.

Date/timePositionNaut miles runAvg speedWind from/ knotsBaromVisibWave heightAir tempDewpointWater temp
2015-Apr-15 12:34N 40°15' E 018°36'1311.6
2015-Apr-15 11:27N 40°02' E 018°36'1112.8
2015-Apr-15 10:33N 39°52' E 018°32'1312.6
2015-Apr-15 09:33N 39°40' E 018°24'1312.9
2015-Apr-15 08:33N 39°32' E 018°11'244 8.7
2015-Apr-14 04:30N 40°33' E 013°03'18213.6
2015-Apr-13 15:08N 42°40' E 010°08'813.6
2015-Apr-13 14:33N 42°45' E 009°59'1312.8
2015-Apr-13 13:33N 42°54' E 009°47'1313.2
2015-Apr-13 12:33N 43°04' E 009°36'1212.0
2015-Apr-13 11:33N 43°08' E 009°20'1714.4
2015-Apr-13 10:24N 43°05' E 008°58'1214.3
2015-Apr-13 09:34N 43°03' E 008°42'6913.7
2015-Apr-13 04:33N 42°51' E 007°10'1313.5
2015-Apr-13 03:33N 42°49' E 006°51'1413.6
2015-Apr-13 02:33N 42°47' E 006°33'1513.3
2015-Apr-13 01:26N 42°46' E 006°13'5112.8
2015-Apr-12 21:28N 43°02' E 005°06'1613.6
2015-Apr-12 20:15N 43°17' E 004°59'810.9
2015-Apr-12 19:33N 43°24' E 004°54'1 1.1
2015-Apr-12 18:21N 43°25' E 004°53'0 0.0
2015-Apr-12 17:33N 43°25' E 004°53'0 0.0
2015-Apr-12 16:33N 43°25' E 004°53'0 0.0
2015-Apr-12 15:34N 43°25' E 004°53'0 0.0
2015-Apr-12 14:33N 43°25' E 004°53'0 0.0
2015-Apr-12 13:33N 43°25' E 004°53'0 0.0
2015-Apr-12 12:34N 43°25' E 004°53'0 0.0
2015-Apr-12 11:33N 43°25' E 004°53'0 0.0
2015-Apr-12 10:33N 43°25' E 004°53'0 0.0
2015-Apr-12 09:33N 43°25' E 004°53'0 0.0
2015-Apr-12 08:33N 43°25' E 004°53'0 0.0
2015-Apr-12 07:33N 43°25' E 004°53'0 0.0
2015-Apr-12 06:33N 43°25' E 004°53'0 0.0
2015-Apr-12 05:33N 43°25' E 004°53'0 0.0
2015-Apr-12 04:33N 43°25' E 004°53'0 0.0
2015-Apr-12 03:33N 43°25' E 004°53'0 0.0
2015-Apr-12 02:33N 43°25' E 004°53'0 0.0
2015-Apr-12 01:33N 43°25' E 004°53'0 0.0
2015-Apr-12 00:33N 43°25' E 004°53'0 0.0
2015-Apr-11 23:32N 43°25' E 004°53'0 0.0
2015-Apr-11 22:33N 43°25' E 004°53'0 0.0
2015-Apr-11 21:33N 43°25' E 004°53'0 0.0
2015-Apr-11 20:34N 43°25' E 004°53'0 0.0
2015-Apr-11 19:33N 43°25' E 004°53'0 0.0
2015-Apr-11 18:33N 43°25' E 004°53'2 2.1
2015-Apr-11 17:33N 43°24' E 004°55'9 8.9
2015-Apr-11 16:32N 43°16' E 005°01'1312.7
2015-Apr-11 15:31N 43°03' E 005°02'1513.8
2015-Apr-11 14:26N 42°48' E 004°59'4549.9
2015-Apr-11 13:31N 43°33' E 004°58'7168.2
2015-Apr-11 12:29N 42°22' E 004°57'1313.1
2015-Apr-11 11:31N 42°09' E 004°56'1313.0
2015-Apr-11 10:33N 41°57' E 004°54'1313.2
2015-Apr-11 09:33N 41°44' E 004°53'1413.3
2015-Apr-11 08:30N 41°30' E 004°52'1613.4
2015-Apr-11 07:18N 41°14' E 004°50'2513.3
2015-Apr-11 05:27N 40°49' E 004°47'1213.2
2015-Apr-11 04:31N 40°37' E 004°46'1313.1
2015-Apr-11 03:30N 40°23' E 004°45'5312.8
2015-Apr-10 23:21N 39°31' E 004°32'4013.1
2015-Apr-10 20:18N 38°54' E 004°13'1013.1
2015-Apr-10 19:32N 38°45' E 004°08'1513.0
2015-Apr-10 18:23N 38°31' E 004°01'5913.8
2015-Apr-10 14:04N 37°36' E 003°32'813.5
2015-Apr-10 13:28N 37°28' E 003°28'4113.6
2015-Apr-10 10:27N 36°51' E 003°08'5 0.2
2015-Apr-09 10:20N 36°46' E 003°08'0 0.0
2015-Apr-09 01:32N 36°46' E 003°08'0 0.0
2015-Apr-08 21:26N 36°46' E 003°08'0 0.0
2015-Apr-08 19:08N 36°46' E 003°08'0 0.0
2015-Apr-08 18:32N 36°46' E 003°08'  
2015-Apr-06 12:16N 38°40' E 002°21'912.8
2015-Apr-06 11:32N 38°49' E 002°18'1313.1
2015-Apr-06 10:33N 39°01' E 002°13'1313.0
2015-Apr-06 09:33N 39°14' E 002°08'1313.2
2015-Apr-06 08:34N 39°26' E 002°03'1513.1
2015-Apr-06 07:26N 39°41' E 002°01'1213.4
2015-Apr-06 06:33N 39°53' E 002°02'1414.2
2015-Apr-06 05:33N 40°07' E 002°04'1414.0
2015-Apr-06 04:33N 40°21' E 002°05'1413.9
2015-Apr-06 03:33N 40°35' E 002°06'1414.1
2015-Apr-06 02:33N 40°49' E 002°08'  

Dump ship's entire track history